sensor_id;sensor_type;location;lat;lon;timestamp;temperature;humidity
11650;DHT22;5881;48.522;7.682;2022-09-09T00:00:47;17.10;99.90
11650;DHT22;5881;48.522;7.682;2022-09-09T00:03:17;17.00;1.00
11650;DHT22;5881;48.522;7.682;2022-09-09T00:06:24;16.90;1.00
11650;DHT22;5881;48.522;7.682;2022-09-09T00:09:18;17.00;1.00
11650;DHT22;5881;48.522;7.682;2022-09-09T00:12:05;17.00;1.00
11650;DHT22;5881;48.522;7.682;2022-09-09T00:17:38;16.80;99.90
11650;DHT22;5881;48.522;7.682;2022-09-09T00:20:32;16.80;1.00
11650;DHT22;5881;48.522;7.682;2022-09-09T00:23:32;16.90;1.00
11650;DHT22;5881;48.522;7.682;2022-09-09T00:28:57;16.80;36.30
11650;DHT22;5881;48.522;7.682;2022-09-09T00:31:27;16.70;99.90
11650;DHT22;5881;48.522;7.682;2022-09-09T00:33:53;16.50;99.90
11650;DHT22;5881;48.522;7.682;2022-09-09T00:36:23;16.40;99.90
11650;DHT22;5881;48.522;7.682;2022-09-09T00:38:58;16.30;99.90
11650;DHT22;5881;48.522;7.682;2022-09-09T00:42:07;16.30;99.90
11650;DHT22;5881;48.522;7.682;2022-09-09T00:44:38;16.30;99.90
11650;DHT22;5881;48.522;7.682;2022-09-09T00:47:36;16.30;99.90
11650;DHT22;5881;48.522;7.682;2022-09-09T00:53:18;16.10;99.90
11650;DHT22;5881;48.522;7.682;2022-09-09T00:55:54;16.10;99.90
11650;DHT22;5881;48.522;7.682;2022-09-09T00:58:23;16.10;99.90
11650;DHT22;5881;48.522;7.682;2022-09-09T01:00:59;16.10;99.90
11650;DHT22;5881;48.522;7.682;2022-09-09T01:09:10;16.00;99.90
11650;DHT22;5881;48.522;7.682;2022-09-09T01:17:25;16.30;99.90
11650;DHT22;5881;48.522;7.682;2022-09-09T01:28:16;16.10;99.90
11650;DHT22;5881;48.522;7.682;2022-09-09T01:30:42;16.00;99.90
11650;DHT22;5881;48.522;7.682;2022-09-09T01:33:14;16.00;99.90
11650;DHT22;5881;48.522;7.682;2022-09-09T01:36:00;15.90;99.90
11650;DHT22;5881;48.522;7.682;2022-09-09T01:38:27;15.90;99.90
11650;DHT22;5881;48.522;7.682;2022-09-09T01:40:53;15.80;99.90
11650;DHT22;5881;48.522;7.682;2022-09-09T01:43:21;15.70;99.90
11650;DHT22;5881;48.522;7.682;2022-09-09T01:45:49;15.70;99.90
11650;DHT22;5881;48.522;7.682;2022-09-09T01:48:18;15.70;99.90
11650;DHT22;5881;48.522;7.682;2022-09-09T01:50:44;15.60;99.90
11650;DHT22;5881;48.522;7.682;2022-09-09T01:53:11;15.70;99.90
11650;DHT22;5881;48.522;7.682;2022-09-09T02:04:03;15.60;99.90
11650;DHT22;5881;48.522;7.682;2022-09-09T02:06:35;15.50;99.90
11650;DHT22;5881;48.522;7.682;2022-09-09T02:09:05;15.60;99.90
11650;DHT22;5881;48.522;7.682;2022-09-09T02:11:32;15.60;99.90
11650;DHT22;5881;48.522;7.682;2022-09-09T02:14:01;15.60;99.90
11650;DHT22;5881;48.522;7.682;2022-09-09T02:19:18;15.60;99.90
11650;DHT22;5881;48.522;7.682;2022-09-09T02:21:46;15.50;99.90
11650;DHT22;5881;48.522;7.682;2022-09-09T02:24:14;15.50;99.90
11650;DHT22;5881;48.522;7.682;2022-09-09T02:26:42;15.50;99.90
11650;DHT22;5881;48.522;7.682;2022-09-09T02:29:24;15.50;99.90
11650;DHT22;5881;48.522;7.682;2022-09-09T02:31:51;15.50;99.90
11650;DHT22;5881;48.522;7.682;2022-09-09T02:34:22;15.40;99.90
11650;DHT22;5881;48.522;7.682;2022-09-09T02:36:50;15.40;99.90
11650;DHT22;5881;48.522;7.682;2022-09-09T02:39:18;15.40;99.90
11650;DHT22;5881;48.522;7.682;2022-09-09T02:41:44;15.40;99.90
11650;DHT22;5881;48.522;7.682;2022-09-09T02:44:16;15.50;99.90
11650;DHT22;5881;48.522;7.682;2022-09-09T02:49:22;15.70;99.90
11650;DHT22;5881;48.522;7.682;2022-09-09T02:52:07;15.70;99.90
11650;DHT22;5881;48.522;7.682;2022-09-09T02:54:37;15.70;99.90
11650;DHT22;5881;48.522;7.682;2022-09-09T02:57:13;15.70;99.90
11650;DHT22;5881;48.522;7.682;2022-09-09T02:59:43;15.80;99.90
11650;DHT22;5881;48.522;7.682;2022-09-09T03:02:09;15.70;99.90
11650;DHT22;5881;48.522;7.682;2022-09-09T03:04:37;15.70;99.90
11650;DHT22;5881;48.522;7.682;2022-09-09T03:07:03;15.70;99.90
11650;DHT22;5881;48.522;7.682;2022-09-09T03:09:29;15.60;99.90
11650;DHT22;5881;48.522;7.682;2022-09-09T03:11:55;15.50;99.90
11650;DHT22;5881;48.522;7.682;2022-09-09T03:14:22;15.40;99.90
11650;DHT22;5881;48.522;7.682;2022-09-09T03:16:50;15.40;99.90
11650;DHT22;5881;48.522;7.682;2022-09-09T03:19:16;15.30;99.90
11650;DHT22;5881;48.522;7.682;2022-09-09T03:21:44;15.30;99.90
11650;DHT22;5881;48.522;7.682;2022-09-09T03:24:10;15.20;99.90
11650;DHT22;5881;48.522;7.682;2022-09-09T03:26:35;15.30;99.90
11650;DHT22;5881;48.522;7.682;2022-09-09T03:29:03;15.30;99.90
11650;DHT22;5881;48.522;7.682;2022-09-09T03:31:32;15.30;99.90
11650;DHT22;5881;48.522;7.682;2022-09-09T03:33:58;15.20;99.90
11650;DHT22;5881;48.522;7.682;2022-09-09T03:36:24;15.10;99.90
11650;DHT22;5881;48.522;7.682;2022-09-09T03:38:51;15.10;99.90
11650;DHT22;5881;48.522;7.682;2022-09-09T03:41:17;15.00;99.90
11650;DHT22;5881;48.522;7.682;2022-09-09T03:43:43;14.90;99.90
11650;DHT22;5881;48.522;7.682;2022-09-09T03:46:10;14.90;99.90
11650;DHT22;5881;48.522;7.682;2022-09-09T03:48:36;14.90;99.90
11650;DHT22;5881;48.522;7.682;2022-09-09T03:51:01;14.90;99.90
11650;DHT22;5881;48.522;7.682;2022-09-09T03:53:28;14.80;99.90
11650;DHT22;5881;48.522;7.682;2022-09-09T03:55:55;14.90;99.90
11650;DHT22;5881;48.522;7.682;2022-09-09T03:58:22;14.90;99.90
11650;DHT22;5881;48.522;7.682;2022-09-09T04:01:10;14.90;99.90
11650;DHT22;5881;48.522;7.682;2022-09-09T04:03:36;14.90;99.90
11650;DHT22;5881;48.522;7.682;2022-09-09T04:06:03;14.90;99.90
11650;DHT22;5881;48.522;7.682;2022-09-09T04:08:30;14.90;99.90
11650;DHT22;5881;48.522;7.682;2022-09-09T04:10:59;14.90;99.90
11650;DHT22;5881;48.522;7.682;2022-09-09T04:13:27;14.80;99.90
11650;DHT22;5881;48.522;7.682;2022-09-09T04:15:59;14.80;99.90
11650;DHT22;5881;48.522;7.682;2022-09-09T04:18:26;14.80;99.90
11650;DHT22;5881;48.522;7.682;2022-09-09T04:20:54;14.70;99.90
11650;DHT22;5881;48.522;7.682;2022-09-09T04:23:22;14.60;99.90
11650;DHT22;5881;48.522;7.682;2022-09-09T04:25:54;14.60;99.90
11650;DHT22;5881;48.522;7.682;2022-09-09T04:28:21;14.50;99.90
11650;DHT22;5881;48.522;7.682;2022-09-09T04:30:47;14.50;99.90
11650;DHT22;5881;48.522;7.682;2022-09-09T04:33:14;14.50;99.90
11650;DHT22;5881;48.522;7.682;2022-09-09T04:35:45;14.50;99.90
11650;DHT22;5881;48.522;7.682;2022-09-09T04:38:10;14.40;99.90
11650;DHT22;5881;48.522;7.682;2022-09-09T04:40:36;14.40;99.90
11650;DHT22;5881;48.522;7.682;2022-09-09T04:43:02;14.40;99.90
11650;DHT22;5881;48.522;7.682;2022-09-09T04:45:31;14.40;99.90
11650;DHT22;5881;48.522;7.682;2022-09-09T04:47:57;14.40;99.90
11650;DHT22;5881;48.522;7.682;2022-09-09T04:50:23;14.40;99.90
11650;DHT22;5881;48.522;7.682;2022-09-09T04:52:49;14.40;99.90
11650;DHT22;5881;48.522;7.682;2022-09-09T04:55:15;14.40;99.90
11650;DHT22;5881;48.522;7.682;2022-09-09T04:57:41;14.50;99.90
11650;DHT22;5881;48.522;7.682;2022-09-09T05:00:07;14.40;99.90
11650;DHT22;5881;48.522;7.682;2022-09-09T05:02:37;14.50;99.90
11650;DHT22;5881;48.522;7.682;2022-09-09T05:05:04;14.50;99.90
11650;DHT22;5881;48.522;7.682;2022-09-09T05:07:29;14.50;99.90
11650;DHT22;5881;48.522;7.682;2022-09-09T05:09:56;14.50;99.90
11650;DHT22;5881;48.522;7.682;2022-09-09T05:12:22;14.50;99.90
11650;DHT22;5881;48.522;7.682;2022-09-09T05:14:49;14.60;99.90
11650;DHT22;5881;48.522;7.682;2022-09-09T05:17:15;14.60;99.90
11650;DHT22;5881;48.522;7.682;2022-09-09T05:19:41;14.60;99.90
11650;DHT22;5881;48.522;7.682;2022-09-09T05:22:08;14.60;99.90
11650;DHT22;5881;48.522;7.682;2022-09-09T05:24:34;14.70;99.90
11650;DHT22;5881;48.522;7.682;2022-09-09T05:26:59;14.80;99.90
11650;DHT22;5881;48.522;7.682;2022-09-09T05:29:27;14.80;99.90
11650;DHT22;5881;48.522;7.682;2022-09-09T05:31:53;14.80;99.90
11650;DHT22;5881;48.522;7.682;2022-09-09T05:34:19;14.70;99.90
11650;DHT22;5881;48.522;7.682;2022-09-09T05:36:46;14.80;99.90
11650;DHT22;5881;48.522;7.682;2022-09-09T05:39:12;14.70;99.90
11650;DHT22;5881;48.522;7.682;2022-09-09T05:41:37;14.90;99.90
11650;DHT22;5881;48.522;7.682;2022-09-09T05:44:03;14.90;99.90
11650;DHT22;5881;48.522;7.682;2022-09-09T05:46:29;14.90;99.90
11650;DHT22;5881;48.522;7.682;2022-09-09T05:48:55;15.00;99.90
11650;DHT22;5881;48.522;7.682;2022-09-09T05:51:24;15.10;99.90
11650;DHT22;5881;48.522;7.682;2022-09-09T05:53:50;15.10;99.90
11650;DHT22;5881;48.522;7.682;2022-09-09T05:56:20;15.20;99.90
11650;DHT22;5881;48.522;7.682;2022-09-09T05:58:47;15.30;99.90
11650;DHT22;5881;48.522;7.682;2022-09-09T06:01:17;15.40;99.90
11650;DHT22;5881;48.522;7.682;2022-09-09T06:03:44;15.30;99.90
11650;DHT22;5881;48.522;7.682;2022-09-09T06:06:24;15.40;99.90
11650;DHT22;5881;48.522;7.682;2022-09-09T06:08:53;15.40;99.90
11650;DHT22;5881;48.522;7.682;2022-09-09T06:11:21;15.50;99.90
11650;DHT22;5881;48.522;7.682;2022-09-09T06:13:47;15.50;99.90
11650;DHT22;5881;48.522;7.682;2022-09-09T06:16:16;15.40;99.90
11650;DHT22;5881;48.522;7.682;2022-09-09T06:18:42;15.30;99.90
11650;DHT22;5881;48.522;7.682;2022-09-09T06:21:15;15.50;99.90
11650;DHT22;5881;48.522;7.682;2022-09-09T06:23:41;15.70;99.90
11650;DHT22;5881;48.522;7.682;2022-09-09T06:26:19;15.70;99.90
11650;DHT22;5881;48.522;7.682;2022-09-09T06:28:46;15.60;99.90
11650;DHT22;5881;48.522;7.682;2022-09-09T06:31:15;16.70;99.90
11650;DHT22;5881;48.522;7.682;2022-09-09T06:33:43;18.40;99.90
11650;DHT22;5881;48.522;7.682;2022-09-09T06:36:18;20.10;99.90
11650;DHT22;5881;48.522;7.682;2022-09-09T06:38:45;21.00;99.90
11650;DHT22;5881;48.522;7.682;2022-09-09T06:41:12;20.50;99.90
11650;DHT22;5881;48.522;7.682;2022-09-09T06:43:39;18.50;99.90
11650;DHT22;5881;48.522;7.682;2022-09-09T06:48:31;17.40;99.90
11650;DHT22;5881;48.522;7.682;2022-09-09T06:51:09;17.30;99.90
11650;DHT22;5881;48.522;7.682;2022-09-09T06:53:37;17.80;99.90
11650;DHT22;5881;48.522;7.682;2022-09-09T06:56:23;19.10;99.90
11650;DHT22;5881;48.522;7.682;2022-09-09T06:58:51;18.00;99.90
11650;DHT22;5881;48.522;7.682;2022-09-09T07:01:23;18.50;99.90
11650;DHT22;5881;48.522;7.682;2022-09-09T07:03:50;20.40;99.90
11650;DHT22;5881;48.522;7.682;2022-09-09T07:06:26;21.70;99.90
11650;DHT22;5881;48.522;7.682;2022-09-09T07:08:56;22.30;5.60
11650;DHT22;5881;48.522;7.682;2022-09-09T07:11:28;23.40;1.00
11650;DHT22;5881;48.522;7.682;2022-09-09T07:13:54;23.30;1.00
11650;DHT22;5881;48.522;7.682;2022-09-09T07:16:21;23.60;1.00
11650;DHT22;5881;48.522;7.682;2022-09-09T07:18:50;23.80;1.00
11650;DHT22;5881;48.522;7.682;2022-09-09T07:21:17;23.60;1.00
11650;DHT22;5881;48.522;7.682;2022-09-09T07:23:44;24.40;1.00
11650;DHT22;5881;48.522;7.682;2022-09-09T07:26:13;24.30;1.00
11650;DHT22;5881;48.522;7.682;2022-09-09T07:28:39;24.60;1.00
11650;DHT22;5881;48.522;7.682;2022-09-09T07:31:06;26.20;1.00
11650;DHT22;5881;48.522;7.682;2022-09-09T07:33:35;25.70;1.00
11650;DHT22;5881;48.522;7.682;2022-09-09T07:36:15;25.60;1.00
11650;DHT22;5881;48.522;7.682;2022-09-09T07:38:42;26.00;1.00
11650;DHT22;5881;48.522;7.682;2022-09-09T07:41:10;26.00;1.00
11650;DHT22;5881;48.522;7.682;2022-09-09T07:43:44;26.30;1.00
11650;DHT22;5881;48.522;7.682;2022-09-09T07:46:11;23.60;1.00
11650;DHT22;5881;48.522;7.682;2022-09-09T07:48:38;22.70;1.00
11650;DHT22;5881;48.522;7.682;2022-09-09T07:51:15;22.00;1.00
11650;DHT22;5881;48.522;7.682;2022-09-09T07:53:44;21.20;1.00
11650;DHT22;5881;48.522;7.682;2022-09-09T07:56:13;21.40;1.00
11650;DHT22;5881;48.522;7.682;2022-09-09T07:58:40;22.00;1.00
11650;DHT22;5881;48.522;7.682;2022-09-09T08:01:20;24.20;1.00
11650;DHT22;5881;48.522;7.682;2022-09-09T08:03:52;24.40;1.00
11650;DHT22;5881;48.522;7.682;2022-09-09T08:06:18;26.20;1.00
11650;DHT22;5881;48.522;7.682;2022-09-09T08:08:43;27.10;1.00
11650;DHT22;5881;48.522;7.682;2022-09-09T08:11:15;27.40;1.00
11650;DHT22;5881;48.522;7.682;2022-09-09T08:13:42;27.80;1.00
11650;DHT22;5881;48.522;7.682;2022-09-09T08:16:13;28.10;1.00
11650;DHT22;5881;48.522;7.682;2022-09-09T08:18:40;28.60;1.00
11650;DHT22;5881;48.522;7.682;2022-09-09T08:21:11;28.40;1.00
11650;DHT22;5881;48.522;7.682;2022-09-09T08:23:38;27.40;1.00
11650;DHT22;5881;48.522;7.682;2022-09-09T08:26:25;27.90;1.00
11650;DHT22;5881;48.522;7.682;2022-09-09T08:28:53;27.00;1.00
11650;DHT22;5881;48.522;7.682;2022-09-09T08:31:21;25.60;1.00
11650;DHT22;5881;48.522;7.682;2022-09-09T08:33:47;26.50;1.00
11650;DHT22;5881;48.522;7.682;2022-09-09T08:36:20;27.80;1.00
11650;DHT22;5881;48.522;7.682;2022-09-09T08:38:56;26.90;1.00
11650;DHT22;5881;48.522;7.682;2022-09-09T08:43:48;26.60;1.00
11650;DHT22;5881;48.522;7.682;2022-09-09T08:46:39;24.00;1.00
11650;DHT22;5881;48.522;7.682;2022-09-09T08:49:46;22.70;1.00
11650;DHT22;5881;48.522;7.682;2022-09-09T08:55:27;21.70;1.00
11650;DHT22;5881;48.522;7.682;2022-09-09T08:57:55;21.70;1.00
11650;DHT22;5881;48.522;7.682;2022-09-09T09:00:22;21.60;1.00
11650;DHT22;5881;48.522;7.682;2022-09-09T09:11:23;20.60;1.00
11650;DHT22;5881;48.522;7.682;2022-09-09T09:14:00;20.50;1.00
11650;DHT22;5881;48.522;7.682;2022-09-09T09:16:57;20.60;1.00
11650;DHT22;5881;48.522;7.682;2022-09-09T09:19:24;21.40;1.00
11650;DHT22;5881;48.522;7.682;2022-09-09T09:25:18;21.50;1.00
11650;DHT22;5881;48.522;7.682;2022-09-09T09:30:36;21.10;1.00
11650;DHT22;5881;48.522;7.682;2022-09-09T09:36:12;21.60;1.00
11650;DHT22;5881;48.522;7.682;2022-09-09T09:38:55;21.50;1.00
11650;DHT22;5881;48.522;7.682;2022-09-09T09:44:04;21.60;1.00
11650;DHT22;5881;48.522;7.682;2022-09-09T09:46:31;21.90;1.00
11650;DHT22;5881;48.522;7.682;2022-09-09T09:49:04;22.00;1.00
11650;DHT22;5881;48.522;7.682;2022-09-09T09:51:34;22.00;1.00
11650;DHT22;5881;48.522;7.682;2022-09-09T09:57:14;23.40;1.00
11650;DHT22;5881;48.522;7.682;2022-09-09T09:59:42;25.10;1.00
11650;DHT22;5881;48.522;7.682;2022-09-09T10:02:23;26.10;1.00
11650;DHT22;5881;48.522;7.682;2022-09-09T10:05:12;26.60;1.00
11650;DHT22;5881;48.522;7.682;2022-09-09T10:07:38;26.30;1.00
11650;DHT22;5881;48.522;7.682;2022-09-09T10:10:09;26.80;1.00
11650;DHT22;5881;48.522;7.682;2022-09-09T10:15:39;27.50;1.00
11650;DHT22;5881;48.522;7.682;2022-09-09T10:35:13;24.70;1.00
11650;DHT22;5881;48.522;7.682;2022-09-09T10:40:37;24.00;1.00
11650;DHT22;5881;48.522;7.682;2022-09-09T10:56:52;25.80;1.00
11650;DHT22;5881;48.522;7.682;2022-09-09T10:59:25;25.20;1.00
11650;DHT22;5881;48.522;7.682;2022-09-09T11:04:35;26.20;1.00
11650;DHT22;5881;48.522;7.682;2022-09-09T11:07:12;26.10;1.00
11650;DHT22;5881;48.522;7.682;2022-09-09T11:09:48;26.30;1.00
11650;DHT22;5881;48.522;7.682;2022-09-09T11:12:18;27.70;1.00
11650;DHT22;5881;48.522;7.682;2022-09-09T11:15:15;27.50;1.00
11650;DHT22;5881;48.522;7.682;2022-09-09T11:17:52;27.60;1.00
11650;DHT22;5881;48.522;7.682;2022-09-09T11:20:20;25.10;1.00
11650;DHT22;5881;48.522;7.682;2022-09-09T11:22:55;26.30;1.00
11650;DHT22;5881;48.522;7.682;2022-09-09T11:25:35;25.90;1.00
11650;DHT22;5881;48.522;7.682;2022-09-09T11:38:52;23.10;1.00
11650;DHT22;5881;48.522;7.682;2022-09-09T11:41:20;23.10;1.00
11650;DHT22;5881;48.522;7.682;2022-09-09T11:46:15;24.00;1.00
11650;DHT22;5881;48.522;7.682;2022-09-09T11:48:44;24.80;1.00
11650;DHT22;5881;48.522;7.682;2022-09-09T11:51:27;25.60;1.00
11650;DHT22;5881;48.522;7.682;2022-09-09T11:53:56;26.40;1.00
11650;DHT22;5881;48.522;7.682;2022-09-09T11:56:42;26.30;1.00
11650;DHT22;5881;48.522;7.682;2022-09-09T11:59:28;26.20;1.00
11650;DHT22;5881;48.522;7.682;2022-09-09T12:02:03;26.50;1.00
11650;DHT22;5881;48.522;7.682;2022-09-09T12:04:40;25.90;1.00
11650;DHT22;5881;48.522;7.682;2022-09-09T12:17:26;24.30;1.00
11650;DHT22;5881;48.522;7.682;2022-09-09T12:33:17;23.80;1.00
11650;DHT22;5881;48.522;7.682;2022-09-09T12:35:48;23.50;1.00
11650;DHT22;5881;48.522;7.682;2022-09-09T12:38:27;23.40;1.00
11650;DHT22;5881;48.522;7.682;2022-09-09T12:40:56;22.90;1.00
11650;DHT22;5881;48.522;7.682;2022-09-09T12:43:25;23.00;1.00
11650;DHT22;5881;48.522;7.682;2022-09-09T12:45:55;22.60;1.00
11650;DHT22;5881;48.522;7.682;2022-09-09T12:48:29;22.40;1.00
11650;DHT22;5881;48.522;7.682;2022-09-09T12:50:57;22.80;1.00
11650;DHT22;5881;48.522;7.682;2022-09-09T12:53:24;22.60;1.00
11650;DHT22;5881;48.522;7.682;2022-09-09T12:55:57;23.20;1.00
11650;DHT22;5881;48.522;7.682;2022-09-09T12:58:24;23.20;1.00
11650;DHT22;5881;48.522;7.682;2022-09-09T13:00:56;22.70;1.00
11650;DHT22;5881;48.522;7.682;2022-09-09T13:03:22;22.40;1.00
11650;DHT22;5881;48.522;7.682;2022-09-09T13:05:49;22.60;1.00
11650;DHT22;5881;48.522;7.682;2022-09-09T13:08:16;22.50;1.00
11650;DHT22;5881;48.522;7.682;2022-09-09T13:10:53;22.80;1.00
11650;DHT22;5881;48.522;7.682;2022-09-09T13:13:27;22.70;1.00
11650;DHT22;5881;48.522;7.682;2022-09-09T13:15:59;23.00;1.00
11650;DHT22;5881;48.522;7.682;2022-09-09T13:18:31;23.10;1.00
11650;DHT22;5881;48.522;7.682;2022-09-09T13:20:57;23.60;1.00
11650;DHT22;5881;48.522;7.682;2022-09-09T13:23:34;23.80;1.00
11650;DHT22;5881;48.522;7.682;2022-09-09T13:26:06;23.90;1.00
11650;DHT22;5881;48.522;7.682;2022-09-09T13:28:44;23.80;1.00
11650;DHT22;5881;48.522;7.682;2022-09-09T13:31:29;24.00;1.00
11650;DHT22;5881;48.522;7.682;2022-09-09T13:33:55;23.90;1.00
11650;DHT22;5881;48.522;7.682;2022-09-09T13:36:29;23.90;1.00
11650;DHT22;5881;48.522;7.682;2022-09-09T13:38:57;24.00;1.00
11650;DHT22;5881;48.522;7.682;2022-09-09T13:41:35;24.20;1.00
11650;DHT22;5881;48.522;7.682;2022-09-09T13:44:03;23.90;1.00
11650;DHT22;5881;48.522;7.682;2022-09-09T13:46:35;24.20;1.00
11650;DHT22;5881;48.522;7.682;2022-09-09T13:49:21;24.30;1.00
11650;DHT22;5881;48.522;7.682;2022-09-09T13:51:50;24.20;1.00
11650;DHT22;5881;48.522;7.682;2022-09-09T13:54:18;23.60;1.00
11650;DHT22;5881;48.522;7.682;2022-09-09T13:56:45;23.50;1.00
11650;DHT22;5881;48.522;7.682;2022-09-09T13:59:17;23.10;1.00
11650;DHT22;5881;48.522;7.682;2022-09-09T14:01:47;22.90;1.00
11650;DHT22;5881;48.522;7.682;2022-09-09T14:04:14;22.70;1.00
11650;DHT22;5881;48.522;7.682;2022-09-09T14:06:41;22.40;1.00
11650;DHT22;5881;48.522;7.682;2022-09-09T14:09:11;22.40;1.00
11650;DHT22;5881;48.522;7.682;2022-09-09T14:11:38;22.50;1.00
11650;DHT22;5881;48.522;7.682;2022-09-09T14:14:03;22.30;1.00
11650;DHT22;5881;48.522;7.682;2022-09-09T14:16:30;21.90;1.00
11650;DHT22;5881;48.522;7.682;2022-09-09T14:18:55;21.40;1.00
11650;DHT22;5881;48.522;7.682;2022-09-09T14:21:25;20.50;1.00
11650;DHT22;5881;48.522;7.682;2022-09-09T14:23:51;19.60;1.00
11650;DHT22;5881;48.522;7.682;2022-09-09T14:26:21;19.20;1.00
11650;DHT22;5881;48.522;7.682;2022-09-09T14:28:47;18.80;1.00
11650;DHT22;5881;48.522;7.682;2022-09-09T14:31:13;18.70;99.90
11650;DHT22;5881;48.522;7.682;2022-09-09T14:33:39;18.90;99.90
11650;DHT22;5881;48.522;7.682;2022-09-09T14:36:06;18.90;99.90
11650;DHT22;5881;48.522;7.682;2022-09-09T14:38:33;19.30;99.90
11650;DHT22;5881;48.522;7.682;2022-09-09T14:41:00;19.50;1.00
11650;DHT22;5881;48.522;7.682;2022-09-09T14:43:29;20.10;1.00
11650;DHT22;5881;48.522;7.682;2022-09-09T14:45:57;20.10;1.00
11650;DHT22;5881;48.522;7.682;2022-09-09T14:48:22;20.00;1.00
11650;DHT22;5881;48.522;7.682;2022-09-09T14:50:48;20.10;1.00
11650;DHT22;5881;48.522;7.682;2022-09-09T14:53:16;20.20;1.00
11650;DHT22;5881;48.522;7.682;2022-09-09T14:55:42;20.20;1.00
11650;DHT22;5881;48.522;7.682;2022-09-09T14:58:07;20.30;1.00
11650;DHT22;5881;48.522;7.682;2022-09-09T15:00:33;20.40;1.00
11650;DHT22;5881;48.522;7.682;2022-09-09T15:02:59;20.30;1.00
11650;DHT22;5881;48.522;7.682;2022-09-09T15:05:25;20.40;1.00
11650;DHT22;5881;48.522;7.682;2022-09-09T15:07:51;20.20;1.00
11650;DHT22;5881;48.522;7.682;2022-09-09T15:10:16;20.20;1.00
11650;DHT22;5881;48.522;7.682;2022-09-09T15:12:43;20.50;1.00
11650;DHT22;5881;48.522;7.682;2022-09-09T15:15:09;21.00;1.00
11650;DHT22;5881;48.522;7.682;2022-09-09T15:17:34;21.30;1.00
11650;DHT22;5881;48.522;7.682;2022-09-09T15:20:05;21.10;1.00
11650;DHT22;5881;48.522;7.682;2022-09-09T15:22:33;20.80;1.00
11650;DHT22;5881;48.522;7.682;2022-09-09T15:24:59;20.70;1.00
11650;DHT22;5881;48.522;7.682;2022-09-09T15:27:25;20.50;1.00
11650;DHT22;5881;48.522;7.682;2022-09-09T15:29:50;20.60;1.00
11650;DHT22;5881;48.522;7.682;2022-09-09T15:32:17;20.60;1.00
11650;DHT22;5881;48.522;7.682;2022-09-09T15:34:43;20.70;1.00
11650;DHT22;5881;48.522;7.682;2022-09-09T15:37:12;20.60;1.00
11650;DHT22;5881;48.522;7.682;2022-09-09T15:39:40;20.50;1.00
11650;DHT22;5881;48.522;7.682;2022-09-09T15:42:06;20.50;1.00
11650;DHT22;5881;48.522;7.682;2022-09-09T15:44:42;20.50;1.00
11650;DHT22;5881;48.522;7.682;2022-09-09T15:47:10;20.50;1.00
11650;DHT22;5881;48.522;7.682;2022-09-09T15:49:35;20.40;1.00
11650;DHT22;5881;48.522;7.682;2022-09-09T15:52:01;20.30;1.00
11650;DHT22;5881;48.522;7.682;2022-09-09T15:54:31;20.40;1.00
11650;DHT22;5881;48.522;7.682;2022-09-09T15:56:59;20.40;1.00
11650;DHT22;5881;48.522;7.682;2022-09-09T15:59:28;20.40;1.00
11650;DHT22;5881;48.522;7.682;2022-09-09T16:01:54;20.50;1.00
11650;DHT22;5881;48.522;7.682;2022-09-09T16:04:21;20.40;1.00
11650;DHT22;5881;48.522;7.682;2022-09-09T16:06:56;20.40;1.00
11650;DHT22;5881;48.522;7.682;2022-09-09T16:09:23;20.40;1.00
11650;DHT22;5881;48.522;7.682;2022-09-09T16:11:49;20.40;1.00
11650;DHT22;5881;48.522;7.682;2022-09-09T16:14:15;20.30;1.00
11650;DHT22;5881;48.522;7.682;2022-09-09T16:16:41;20.30;1.00
11650;DHT22;5881;48.522;7.682;2022-09-09T16:19:09;20.50;1.00
11650;DHT22;5881;48.522;7.682;2022-09-09T16:21:39;20.50;1.00
11650;DHT22;5881;48.522;7.682;2022-09-09T16:24:07;20.70;1.00
11650;DHT22;5881;48.522;7.682;2022-09-09T16:26:34;20.80;1.00
11650;DHT22;5881;48.522;7.682;2022-09-09T16:29:01;20.90;1.00
11650;DHT22;5881;48.522;7.682;2022-09-09T16:31:28;21.00;1.00
11650;DHT22;5881;48.522;7.682;2022-09-09T16:33:54;20.90;1.00
11650;DHT22;5881;48.522;7.682;2022-09-09T16:38:47;21.00;1.00
11650;DHT22;5881;48.522;7.682;2022-09-09T16:41:13;21.10;1.00
11650;DHT22;5881;48.522;7.682;2022-09-09T16:43:40;21.10;1.00
11650;DHT22;5881;48.522;7.682;2022-09-09T16:46:14;21.10;1.00
11650;DHT22;5881;48.522;7.682;2022-09-09T16:48:42;21.20;1.00
11650;DHT22;5881;48.522;7.682;2022-09-09T16:51:15;21.30;1.00
11650;DHT22;5881;48.522;7.682;2022-09-09T16:53:42;21.30;1.00
11650;DHT22;5881;48.522;7.682;2022-09-09T16:56:13;21.20;1.00
11650;DHT22;5881;48.522;7.682;2022-09-09T16:58:40;21.10;1.00
11650;DHT22;5881;48.522;7.682;2022-09-09T17:01:07;21.10;1.00
11650;DHT22;5881;48.522;7.682;2022-09-09T17:03:32;21.00;1.00
11650;DHT22;5881;48.522;7.682;2022-09-09T17:05:58;20.90;1.00
11650;DHT22;5881;48.522;7.682;2022-09-09T17:08:28;20.90;1.00
11650;DHT22;5881;48.522;7.682;2022-09-09T17:10:55;20.90;1.00
11650;DHT22;5881;48.522;7.682;2022-09-09T17:13:20;20.80;1.00
11650;DHT22;5881;48.522;7.682;2022-09-09T17:15:46;20.80;1.00
11650;DHT22;5881;48.522;7.682;2022-09-09T17:18:12;20.80;1.00
11650;DHT22;5881;48.522;7.682;2022-09-09T17:20:41;20.70;1.00
11650;DHT22;5881;48.522;7.682;2022-09-09T17:23:08;20.70;1.00
11650;DHT22;5881;48.522;7.682;2022-09-09T17:25:35;20.50;1.00
11650;DHT22;5881;48.522;7.682;2022-09-09T17:28:01;20.30;1.00
11650;DHT22;5881;48.522;7.682;2022-09-09T17:30:38;20.10;1.00
11650;DHT22;5881;48.522;7.682;2022-09-09T17:33:04;20.00;1.00
11650;DHT22;5881;48.522;7.682;2022-09-09T17:35:30;19.80;1.00
11650;DHT22;5881;48.522;7.682;2022-09-09T17:37:56;19.80;1.00
11650;DHT22;5881;48.522;7.682;2022-09-09T17:40:23;19.60;1.00
11650;DHT22;5881;48.522;7.682;2022-09-09T17:42:48;19.50;1.00
11650;DHT22;5881;48.522;7.682;2022-09-09T17:45:14;19.40;1.00
11650;DHT22;5881;48.522;7.682;2022-09-09T17:47:41;19.30;1.00
11650;DHT22;5881;48.522;7.682;2022-09-09T17:50:08;19.20;1.00
11650;DHT22;5881;48.522;7.682;2022-09-09T17:52:35;19.10;1.00
11650;DHT22;5881;48.522;7.682;2022-09-09T17:55:03;19.10;1.00
11650;DHT22;5881;48.522;7.682;2022-09-09T17:57:29;19.00;1.00
11650;DHT22;5881;48.522;7.682;2022-09-09T17:59:54;18.90;1.00
11650;DHT22;5881;48.522;7.682;2022-09-09T18:02:20;18.80;1.00
11650;DHT22;5881;48.522;7.682;2022-09-09T18:04:46;18.70;1.00
11650;DHT22;5881;48.522;7.682;2022-09-09T18:07:11;18.70;1.00
11650;DHT22;5881;48.522;7.682;2022-09-09T18:09:39;18.60;1.00
11650;DHT22;5881;48.522;7.682;2022-09-09T18:12:05;18.60;1.00
11650;DHT22;5881;48.522;7.682;2022-09-09T18:14:32;18.60;1.00
11650;DHT22;5881;48.522;7.682;2022-09-09T18:17:00;18.60;1.00
11650;DHT22;5881;48.522;7.682;2022-09-09T18:19:27;18.60;1.00
11650;DHT22;5881;48.522;7.682;2022-09-09T18:21:55;18.70;1.00
11650;DHT22;5881;48.522;7.682;2022-09-09T18:24:21;18.60;1.00
11650;DHT22;5881;48.522;7.682;2022-09-09T18:26:48;18.60;1.00
11650;DHT22;5881;48.522;7.682;2022-09-09T18:29:17;18.60;1.00
11650;DHT22;5881;48.522;7.682;2022-09-09T18:31:44;18.60;1.00
11650;DHT22;5881;48.522;7.682;2022-09-09T18:34:13;18.50;1.00
11650;DHT22;5881;48.522;7.682;2022-09-09T18:36:47;18.60;1.00
11650;DHT22;5881;48.522;7.682;2022-09-09T18:39:15;18.60;1.00
11650;DHT22;5881;48.522;7.682;2022-09-09T18:41:44;18.60;1.00
11650;DHT22;5881;48.522;7.682;2022-09-09T18:44:12;18.50;1.00